Stone Creek, Ohio
Current Conditions -  °F | °C
As of 8:53 AM on Saturday 25 Oct 2014 (Local Time) from KPHD Reporting Station
Few Clouds Few Clouds  
Wind Chill: 43°   Ceiling: Unl
Heat Index: 45°   Visibility: 8mi
Dew Point: 41°   Wind: 5mph
Humidity: 86%   Direction: 120°ESE
Pressure: 29.97"   Gusts: NA
Location:  40.4°N, 81.56°W
Report Text: KPHD 251253Z AUTO 12004KT 8SM FEW090 07/05 A2997 RMK AO2 SLP151 T00720050
Loading
Personal Weather Stations






























Interactive Weather Map
Tropical Storm Tracking
New forecast layout! Learn more

10-Day Weather Forecast

Advertisements
Track Severe Weather on mobile